Time;durP1;ratioP1;P1;durP2;ratioP2;P2;SDS_P1;SDS_P2;PMS_P1;PMS_P2;Temp;Humidity;BMP_temperature;BMP_pressure;BME280_temperature;BME280_humidity;BME280_pressure;Samples;Min_cycle;Max_cycle;Signal;HPM_P1;HPM_P2
2021/08/20 00:00:30;;;;;;;47.50;31.63;;;16.60;99.90;;;;;;5057548;28;20502;-48
2021/08/20 00:02:56;;;;;;;43.97;29.52;;;16.60;99.90;;;;;;5049950;28;20040;-47
2021/08/20 00:05:21;;;;;;;50.83;31.13;;;16.60;99.90;;;;;;5050559;28;20032;-50
2021/08/20 00:07:46;;;;;;;43.53;28.40;;;16.60;99.90;;;;;;5049736;28;20517;-47
2021/08/20 00:10:12;;;;;;;48.63;31.83;;;16.60;99.90;;;;;;5050020;28;20032;-47
2021/08/20 00:12:38;;;;;;;47.22;30.45;;;16.60;99.90;;;;;;5049762;28;20440;-47
2021/08/20 00:15:13;;;;;;;43.90;29.67;;;16.60;99.90;;;;;;5050096;28;20017;-47
2021/08/20 00:17:38;;;;;;;42.53;28.70;;;16.60;99.90;;;;;;5048502;28;20025;-49
2021/08/20 00:20:05;;;;;;;48.55;31.65;;;16.60;99.90;;;;;;5080633;28;20042;-47
2021/08/20 00:22:31;;;;;;;43.80;29.45;;;16.60;99.90;;;;;;5090025;28;20020;-47
2021/08/20 00:24:56;;;;;;;49.40;31.33;;;16.60;99.90;;;;;;5088672;28;20028;-47
2021/08/20 00:27:22;;;;;;;49.15;31.98;;;16.60;99.90;;;;;;5089117;28;20517;-47
2021/08/20 00:29:47;;;;;;;53.85;33.22;;;16.60;99.90;;;;;;5088300;28;20186;-47
2021/08/20 00:32:12;;;;;;;57.42;34.42;;;16.60;99.90;;;;;;5089348;28;20262;-47
2021/08/20 00:34:38;;;;;;;54.47;32.35;;;16.60;99.90;;;;;;5089489;28;20020;-47
2021/08/20 00:37:03;;;;;;;59.70;34.15;;;16.50;99.90;;;;;;5089065;28;20028;-47
2021/08/20 00:39:29;;;;;;;58.50;35.85;;;16.50;99.90;;;;;;5089622;28;20070;-47
2021/08/20 00:41:55;;;;;;;56.28;34.70;;;16.50;99.90;;;;;;5089556;28;20386;-46
2021/08/20 00:44:21;;;;;;;56.05;34.40;;;16.50;99.90;;;;;;5089532;28;20027;-47
2021/08/20 00:46:46;;;;;;;62.47;35.28;;;16.40;99.90;;;;;;5088950;28;20024;-47
2021/08/20 00:49:13;;;;;;;59.75;34.90;;;16.40;99.90;;;;;;5072703;28;20031;-49
2021/08/20 00:51:39;;;;;;;55.30;32.60;;;16.40;99.90;;;;;;5085618;28;20059;-47
2021/08/20 00:54:09;;;;;;;64.65;38.28;;;16.40;99.90;;;;;;5089411;28;20055;-47
2021/08/20 00:56:39;;;;;;;58.95;34.47;;;16.40;99.90;;;;;;5087394;28;20066;-49
2021/08/20 00:59:05;;;;;;;59.45;35.85;;;16.40;99.90;;;;;;5089459;28;20047;-48
2021/08/20 01:01:31;;;;;;;60.30;37.55;;;16.40;99.90;;;;;;5089267;28;20052;-47
2021/08/20 01:03:57;;;;;;;58.95;36.53;;;16.40;99.90;;;;;;5088870;28;20440;-46
2021/08/20 01:06:22;;;;;;;65.43;39.53;;;16.30;99.90;;;;;;5088509;28;20088;-46
2021/08/20 01:08:48;;;;;;;52.38;34.15;;;16.30;99.90;;;;;;5089051;28;20067;-46
2021/08/20 01:11:13;;;;;;;55.20;34.67;;;16.30;99.90;;;;;;5089058;28;20196;-47
2021/08/20 01:13:41;;;;;;;51.38;33.72;;;16.30;99.90;;;;;;5089023;28;20032;-47
2021/08/20 01:16:07;;;;;;;62.55;36.45;;;16.30;99.90;;;;;;5088478;28;20027;-46
2021/08/20 01:18:34;;;;;;;54.78;34.00;;;16.20;99.90;;;;;;5075511;28;20020;-47
2021/08/20 01:21:03;;;;;;;52.95;32.58;;;16.30;99.90;;;;;;5079042;28;20477;-47
2021/08/20 01:23:29;;;;;;;51.22;32.67;;;16.30;99.90;;;;;;5087461;28;20347;-47
2021/08/20 01:25:56;;;;;;;45.88;31.45;;;16.30;99.90;;;;;;5088978;28;20027;-46
2021/08/20 01:28:24;;;;;;;47.40;31.30;;;16.30;99.90;;;;;;5088204;28;20526;-47
2021/08/20 01:30:51;;;;;;;49.55;32.67;;;16.30;99.90;;;;;;5088746;28;20056;-47
2021/08/20 01:33:17;;;;;;;43.67;29.08;;;16.30;99.90;;;;;;5087397;28;20028;-47
2021/08/20 01:35:43;;;;;;;49.35;32.67;;;16.30;99.90;;;;;;5088700;28;20020;-49
2021/08/20 01:38:08;;;;;;;52.00;34.42;;;16.30;99.90;;;;;;5086857;28;20020;-47
2021/08/20 01:40:34;;;;;;;46.50;30.85;;;16.30;99.90;;;;;;5087474;28;20054;-47
2021/08/20 01:42:59;;;;;;;49.35;30.70;;;16.30;99.90;;;;;;5088185;28;20077;-46
2021/08/20 01:45:25;;;;;;;46.72;31.10;;;16.30;99.90;;;;;;5089175;28;20032;-47
2021/08/20 01:47:50;;;;;;;50.63;31.80;;;16.30;99.90;;;;;;5075852;28;20108;-47
2021/08/20 01:50:16;;;;;;;42.55;28.13;;;16.30;99.90;;;;;;5080090;28;20078;-47
2021/08/20 01:52:41;;;;;;;45.97;29.38;;;16.30;99.90;;;;;;5088448;28;20471;-47
2021/08/20 01:55:08;;;;;;;45.13;31.00;;;16.30;99.90;;;;;;5088408;28;20115;-47
2021/08/20 01:57:36;;;;;;;41.97;26.38;;;16.30;99.90;;;;;;5087826;28;20022;-47
2021/08/20 02:00:04;;;;;;;38.40;26.88;;;16.30;99.90;;;;;;5088419;28;20033;-48
2021/08/20 02:02:30;;;;;;;39.33;26.55;;;16.20;99.90;;;;;;5088127;28;20055;-48
2021/08/20 02:04:55;;;;;;;36.38;25.63;;;16.30;99.90;;;;;;5088299;28;20142;-50
2021/08/20 02:07:21;;;;;;;35.13;24.60;;;16.30;99.90;;;;;;5087977;28;20579;-48
2021/08/20 02:09:47;;;;;;;33.88;24.13;;;16.30;99.90;;;;;;5088530;28;20187;-50
2021/08/20 02:12:13;;;;;;;36.65;23.27;;;16.30;99.90;;;;;;5088443;28;20012;-48
2021/08/20 02:14:39;;;;;;;30.90;22.48;;;16.30;99.90;;;;;;5088605;28;20036;-47
2021/08/20 02:17:05;;;;;;;33.13;22.15;;;16.30;99.90;;;;;;5085875;28;20031;-48
2021/08/20 02:19:30;;;;;;;37.80;24.50;;;16.30;99.90;;;;;;5071203;28;20462;-47
2021/08/20 02:21:56;;;;;;;37.40;24.48;;;16.30;99.90;;;;;;5086650;28;20528;-48
2021/08/20 02:24:21;;;;;;;33.15;23.98;;;16.30;99.90;;;;;;5088256;28;20035;-48
2021/08/20 02:26:46;;;;;;;37.00;24.75;;;16.30;99.90;;;;;;5087443;28;20085;-47
2021/08/20 02:29:12;;;;;;;33.22;22.10;;;16.30;99.90;;;;;;5088049;28;20040;-47
2021/08/20 02:31:37;;;;;;;29.85;21.23;;;16.30;99.90;;;;;;5088229;28;20032;-47
2021/08/20 02:34:03;;;;;;;30.38;21.13;;;16.30;99.90;;;;;;5088109;28;20460;-46
2021/08/20 02:36:29;;;;;;;31.00;21.80;;;16.30;99.90;;;;;;5087488;28;20028;-46
2021/08/20 02:38:54;;;;;;;38.55;24.17;;;16.30;99.90;;;;;;5088017;28;20024;-47
2021/08/20 02:41:20;;;;;;;40.50;26.23;;;16.30;99.90;;;;;;5088335;28;20028;-47
2021/08/20 02:43:46;;;;;;;29.50;21.25;;;16.30;99.90;;;;;;5088059;28;20390;-46
2021/08/20 02:46:11;;;;;;;37.70;23.48;;;16.30;99.90;;;;;;5087532;28;20531;-47
2021/08/20 02:48:37;;;;;;;37.05;22.58;;;16.30;99.90;;;;;;5076486;28;20032;-47
2021/08/20 02:51:02;;;;;;;31.15;21.08;;;16.30;99.90;;;;;;5079349;28;20028;-47
2021/08/20 02:53:28;;;;;;;30.98;22.77;;;16.30;99.90;;;;;;5088166;28;20111;-46
2021/08/20 02:55:53;;;;;;;30.27;22.48;;;16.30;99.90;;;;;;5090933;28;20012;-49
2021/08/20 02:58:19;;;;;;;37.10;24.92;;;16.30;99.90;;;;;;5091092;28;20024;-47
2021/08/20 03:00:45;;;;;;;41.22;28.45;;;16.30;99.90;;;;;;5091626;28;20032;-46
2021/08/20 03:03:11;;;;;;;35.38;25.45;;;16.30;99.90;;;;;;5091368;28;20031;-46
2021/08/20 03:05:36;;;;;;;43.10;29.52;;;16.30;99.90;;;;;;5091571;28;20016;-46
2021/08/20 03:08:02;;;;;;;42.50;25.58;;;16.30;99.90;;;;;;5091079;28;20024;-46
2021/08/20 03:10:28;;;;;;;37.47;26.42;;;16.30;99.90;;;;;;5091778;28;20073;-46
2021/08/20 03:12:53;;;;;;;40.28;24.95;;;16.20;99.90;;;;;;5091575;28;20110;-47
2021/08/20 03:15:19;;;;;;;36.38;25.13;;;16.20;99.90;;;;;;5091529;28;20028;-46
2021/08/20 03:17:44;;;;;;;33.28;23.73;;;16.20;99.90;;;;;;5078885;28;20382;-47
2021/08/20 03:20:10;;;;;;;42.45;26.98;;;16.20;99.90;;;;;;5082700;28;20020;-47
2021/08/20 03:22:35;;;;;;;37.15;23.25;;;16.20;99.90;;;;;;5091307;28;20275;-47
2021/08/20 03:25:01;;;;;;;30.77;22.55;;;16.20;99.90;;;;;;5091247;28;20085;-47
2021/08/20 03:27:26;;;;;;;43.60;26.98;;;16.20;99.90;;;;;;5089354;28;20027;-48
2021/08/20 03:29:52;;;;;;;49.22;30.60;;;16.20;99.90;;;;;;5091293;28;20036;-48
2021/08/20 03:32:18;;;;;;;41.88;27.73;;;16.20;99.90;;;;;;5089952;28;20048;-47
2021/08/20 03:34:43;;;;;;;51.58;33.55;;;16.20;99.90;;;;;;5087274;28;20043;-51
2021/08/20 03:37:10;;;;;;;46.58;31.48;;;16.20;99.90;;;;;;5066236;28;20017;-48
2021/08/20 03:39:36;;;;;;;51.42;31.25;;;16.20;99.90;;;;;;5062159;28;20493;-50
2021/08/20 03:42:01;;;;;;;52.90;30.67;;;16.20;99.90;;;;;;5063319;28;20039;-47
2021/08/20 03:44:27;;;;;;;49.58;32.80;;;16.20;99.90;;;;;;5060980;28;20082;-48
2021/08/20 03:46:52;;;;;;;47.00;28.67;;;16.10;99.90;;;;;;5058774;28;20032;-48
2021/08/20 03:49:18;;;;;;;47.63;29.30;;;16.10;99.90;;;;;;5065112;28;20259;-50
2021/08/20 03:51:43;;;;;;;48.28;29.40;;;16.00;99.90;;;;;;5061736;28;20024;-47
2021/08/20 03:54:10;;;;;;;47.13;28.80;;;16.00;99.90;;;;;;5059558;28;20381;-48
2021/08/20 03:56:36;;;;;;;43.72;29.02;;;16.00;99.90;;;;;;5058626;28;20048;-48
2021/08/20 03:59:01;;;;;;;45.45;28.77;;;16.00;99.90;;;;;;5059796;28;20156;-47
2021/08/20 04:01:27;;;;;;;45.47;27.63;;;15.90;99.90;;;;;;5060661;28;20187;-47
2021/08/20 04:03:52;;;;;;;38.47;26.88;;;15.90;99.90;;;;;;5058212;28;20020;-47
2021/08/20 04:06:18;;;;;;;37.70;24.70;;;15.90;99.90;;;;;;5058841;28;20100;-46
2021/08/20 04:08:43;;;;;;;34.40;23.45;;;15.90;99.90;;;;;;5058700;28;20043;-46
2021/08/20 04:11:11;;;;;;;36.85;24.13;;;15.90;99.90;;;;;;5058731;28;20037;-47
2021/08/20 04:13:37;;;;;;;41.80;26.17;;;15.90;99.90;;;;;;5060089;28;20031;-47
2021/08/20 04:16:03;;;;;;;39.25;25.00;;;15.80;99.90;;;;;;5059380;28;20064;-48
2021/08/20 04:18:28;;;;;;;42.15;24.42;;;15.80;99.90;;;;;;5058610;28;20263;-48
2021/08/20 04:20:54;;;;;;;34.63;23.17;;;15.80;99.90;;;;;;5064843;28;20033;-47
2021/08/20 04:23:19;;;;;;;42.05;26.92;;;15.90;99.90;;;;;;5057944;28;20082;-47
2021/08/20 04:25:45;;;;;;;39.70;26.20;;;15.90;99.90;;;;;;5058323;28;20111;-47
2021/08/20 04:28:10;;;;;;;40.22;24.88;;;15.80;99.90;;;;;;5057583;28;20040;-47
2021/08/20 04:30:36;;;;;;;35.00;24.58;;;15.80;99.90;;;;;;5059003;28;20035;-47
2021/08/20 04:33:03;;;;;;;36.28;24.98;;;15.90;99.90;;;;;;5057415;28;20029;-46
2021/08/20 04:35:28;;;;;;;35.50;25.55;;;15.80;99.90;;;;;;5058941;28;20022;-47
2021/08/20 04:37:55;;;;;;;37.10;24.63;;;15.90;99.90;;;;;;5059320;28;20029;-47
2021/08/20 04:40:20;;;;;;;37.10;22.50;;;15.90;99.90;;;;;;5057919;28;20033;-47
2021/08/20 04:42:46;;;;;;;42.15;27.60;;;15.90;99.90;;;;;;5058072;28;20028;-47
2021/08/20 04:45:14;;;;;;;43.70;27.50;;;15.90;99.90;;;;;;5059878;28;20021;-48
2021/08/20 04:47:39;;;;;;;42.00;27.63;;;15.90;99.90;;;;;;5057644;28;20474;-48
2021/08/20 04:50:05;;;;;;;49.97;32.05;;;15.90;99.90;;;;;;5068037;28;20070;-47
2021/08/20 04:52:31;;;;;;;42.70;28.38;;;16.00;99.90;;;;;;5058273;28;20248;-48
2021/08/20 04:54:57;;;;;;;53.55;31.27;;;16.00;99.90;;;;;;5049459;28;20032;-50
2021/08/20 04:57:22;;;;;;;45.50;31.17;;;16.00;99.90;;;;;;5047292;28;20021;-47
2021/08/20 04:59:48;;;;;;;43.05;28.42;;;16.00;99.90;;;;;;5049243;28;20467;-47
2021/08/20 05:02:13;;;;;;;51.55;28.92;;;16.00;99.90;;;;;;5048863;28;20146;-48
2021/08/20 05:04:39;;;;;;;42.00;28.88;;;16.00;99.90;;;;;;5056856;28;20024;-49
2021/08/20 05:07:05;;;;;;;40.83;28.42;;;16.00;99.90;;;;;;5058874;28;20020;-48
2021/08/20 05:09:34;;;;;;;39.40;27.98;;;16.10;99.90;;;;;;5046114;28;20024;-46
2021/08/20 05:12:01;;;;;;;41.28;30.45;;;16.00;99.90;;;;;;5057744;28;20035;-47
2021/08/20 05:14:26;;;;;;;41.85;29.20;;;16.10;99.90;;;;;;5060025;28;20031;-49
2021/08/20 05:16:52;;;;;;;42.83;27.73;;;16.10;99.90;;;;;;5062029;28;20150;-47
2021/08/20 05:19:17;;;;;;;42.17;28.92;;;16.20;99.90;;;;;;5059339;28;20090;-47
2021/08/20 05:21:43;;;;;;;47.90;30.67;;;16.10;99.90;;;;;;5068797;28;20112;-47
2021/08/20 05:24:08;;;;;;;43.45;28.33;;;16.20;99.90;;;;;;5062382;28;20017;-48
2021/08/20 05:26:34;;;;;;;37.67;26.17;;;16.20;99.90;;;;;;5064113;28;20389;-47
2021/08/20 05:28:59;;;;;;;42.15;29.00;;;16.30;99.90;;;;;;5063216;28;20063;-46
2021/08/20 05:31:25;;;;;;;42.05;28.58;;;16.30;99.90;;;;;;5067900;28;20301;-47
2021/08/20 05:33:51;;;;;;;39.33;28.13;;;16.30;99.90;;;;;;5062934;28;20578;-47
2021/08/20 05:36:16;;;;;;;36.50;26.52;;;16.30;99.90;;;;;;5062679;28;20467;-47
2021/08/20 05:38:42;;;;;;;44.90;28.13;;;16.30;99.90;;;;;;5061857;28;20079;-46
2021/08/20 05:41:07;;;;;;;41.58;28.30;;;16.30;99.90;;;;;;5064270;28;20043;-46
2021/08/20 05:43:33;;;;;;;40.58;27.42;;;16.30;99.90;;;;;;5060679;28;20025;-47
2021/08/20 05:45:59;;;;;;;39.47;26.35;;;16.40;99.90;;;;;;5060349;28;20024;-47
2021/08/20 05:48:25;;;;;;;41.22;27.13;;;16.40;99.90;;;;;;5067805;28;20040;-47
2021/08/20 05:50:50;;;;;;;38.42;26.42;;;16.40;99.90;;;;;;5074063;28;20478;-48
2021/08/20 05:53:16;;;;;;;38.05;28.23;;;16.40;99.90;;;;;;5067953;28;20020;-46
2021/08/20 05:55:42;;;;;;;40.85;27.65;;;16.30;99.90;;;;;;5086680;28;20028;-46
2021/08/20 05:58:07;;;;;;;40.72;26.20;;;16.40;99.90;;;;;;5087789;28;20032;-46
2021/08/20 06:00:34;;;;;;;38.65;25.73;;;16.40;99.90;;;;;;5086836;28;20028;-47
2021/08/20 06:03:00;;;;;;;40.70;27.33;;;16.50;99.90;;;;;;5077035;28;20032;-48
2021/08/20 06:05:26;;;;;;;38.30;26.38;;;16.50;99.90;;;;;;5067902;28;20115;-46
2021/08/20 06:07:51;;;;;;;37.88;24.30;;;16.50;99.90;;;;;;5060972;28;20279;-47
2021/08/20 06:10:18;;;;;;;34.78;24.88;;;16.50;99.90;;;;;;5049285;28;20024;-47
2021/08/20 06:12:43;;;;;;;38.50;25.73;;;16.50;99.90;;;;;;5047787;28;20028;-47
2021/08/20 06:15:10;;;;;;;39.42;25.80;;;16.60;99.90;;;;;;5048042;28;20025;-47
2021/08/20 06:17:35;;;;;;;34.22;24.88;;;16.50;99.90;;;;;;5046613;28;20122;-47
2021/08/20 06:20:01;;;;;;;35.92;25.15;;;16.50;99.90;;;;;;5076807;28;20450;-49
2021/08/20 06:22:26;;;;;;;35.65;24.67;;;16.50;99.90;;;;;;5088232;28;20039;-49
2021/08/20 06:24:53;;;;;;;37.08;25.20;;;16.50;99.90;;;;;;5088008;28;20048;-47
2021/08/20 06:27:19;;;;;;;40.20;24.25;;;16.60;99.90;;;;;;5087564;28;20023;-48
2021/08/20 06:29:44;;;;;;;39.10;26.02;;;16.60;99.90;;;;;;5089225;28;20431;-49
2021/08/20 06:32:10;;;;;;;35.38;24.63;;;16.60;99.90;;;;;;5074584;28;20143;-47
2021/08/20 06:34:35;;;;;;;33.03;22.90;;;16.60;99.90;;;;;;5054401;28;20033;-47
2021/08/20 06:37:01;;;;;;;34.38;22.90;;;16.70;99.90;;;;;;5051229;28;20056;-47
2021/08/20 06:39:26;;;;;;;34.05;21.98;;;16.70;99.90;;;;;;5056968;28;20052;-47
2021/08/20 06:41:52;;;;;;;33.28;24.42;;;16.70;99.90;;;;;;5051657;28;20063;-47
2021/08/20 06:44:17;;;;;;;33.17;21.92;;;16.70;99.90;;;;;;5051548;28;20035;-47
2021/08/20 06:46:43;;;;;;;29.65;22.13;;;16.80;99.90;;;;;;5052082;28;20472;-46
2021/08/20 06:49:08;;;;;;;35.15;24.17;;;16.90;99.90;;;;;;5069971;28;20024;-49
2021/08/20 06:51:35;;;;;;;31.95;22.63;;;17.10;99.90;;;;;;5085567;28;20424;-47
2021/08/20 06:54:02;;;;;;;34.55;24.65;;;17.20;99.90;;;;;;5091793;28;20073;-47
2021/08/20 06:56:28;;;;;;;28.58;20.75;;;17.30;99.90;;;;;;5091075;28;20111;-50
2021/08/20 06:58:57;;;;;;;31.65;22.67;;;17.40;99.90;;;;;;5090231;28;20525;-48
2021/08/20 07:01:23;;;;;;;28.35;20.85;;;17.40;99.90;;;;;;5090188;28;20687;-50
2021/08/20 07:03:48;;;;;;;31.13;21.58;;;17.40;99.90;;;;;;5091430;28;20149;-47
2021/08/20 07:06:22;;;;;;;26.02;20.13;;;17.40;99.90;;;;;;5090975;28;20103;-48
2021/08/20 07:08:49;;;;;;;30.95;21.23;;;17.50;99.90;;;;;;5069201;28;20024;-49
2021/08/20 07:11:15;;;;;;;29.80;20.15;;;17.50;99.90;;;;;;5071135;28;20436;-48
2021/08/20 07:13:41;;;;;;;26.48;20.58;;;17.50;99.90;;;;;;5070752;28;20214;-47
2021/08/20 07:16:06;;;;;;;30.80;19.88;;;17.50;99.90;;;;;;5070420;28;20052;-47
2021/08/20 07:18:33;;;;;;;25.30;18.92;;;17.50;99.90;;;;;;5072849;28;20020;-47
2021/08/20 07:20:59;;;;;;;31.15;19.60;;;17.60;99.90;;;;;;5082715;28;20020;-47
2021/08/20 07:23:24;;;;;;;26.13;18.33;;;17.70;99.90;;;;;;5091256;28;20031;-49
2021/08/20 07:25:50;;;;;;;28.33;17.73;;;17.80;99.90;;;;;;5089257;28;20069;-48
2021/08/20 07:28:15;;;;;;;23.92;16.85;;;17.90;99.90;;;;;;5088787;28;20024;-47
2021/08/20 07:30:41;;;;;;;24.88;17.73;;;18.10;99.90;;;;;;5085804;28;20032;-49
2021/08/20 07:33:06;;;;;;;25.40;17.02;;;18.30;99.90;;;;;;5090208;28;20024;-47
2021/08/20 07:35:32;;;;;;;26.30;17.98;;;18.50;99.90;;;;;;5090618;28;20123;-47
2021/08/20 07:37:57;;;;;;;22.15;16.50;;;18.60;99.90;;;;;;5090109;28;20448;-48
2021/08/20 07:40:23;;;;;;;25.15;19.33;;;18.60;99.90;;;;;;5089879;28;20059;-47
2021/08/20 07:42:48;;;;;;;24.15;17.90;;;18.60;99.90;;;;;;5089323;28;20024;-48
2021/08/20 07:45:14;;;;;;;27.95;17.45;;;18.50;99.90;;;;;;5088784;28;20081;-50
2021/08/20 07:47:44;;;;;;;22.83;16.13;;;18.40;99.90;;;;;;5085000;28;20490;-47
2021/08/20 07:50:10;;;;;;;22.48;16.45;;;18.40;99.90;;;;;;5069750;28;20025;-48
2021/08/20 07:52:35;;;;;;;25.15;18.17;;;18.30;99.90;;;;;;5068769;28;20024;-49
2021/08/20 07:55:01;;;;;;;22.75;17.80;;;18.30;99.90;;;;;;5069684;28;20013;-50
2021/08/20 07:57:27;;;;;;;30.30;18.90;;;18.40;99.90;;;;;;5069014;28;20024;-47
2021/08/20 07:59:53;;;;;;;24.60;16.95;;;18.40;99.90;;;;;;5063321;28;20021;-50
2021/08/20 08:02:18;;;;;;;25.52;16.95;;;18.40;99.90;;;;;;5068363;28;20025;-50
2021/08/20 08:04:43;;;;;;;22.38;16.67;;;18.50;99.90;;;;;;5053974;28;20109;-47
2021/08/20 08:07:09;;;;;;;25.45;16.58;;;18.50;99.90;;;;;;5054553;28;20081;-49
2021/08/20 08:09:34;;;;;;;26.80;18.98;;;18.40;99.90;;;;;;5049575;28;20036;-47
2021/08/20 08:12:00;;;;;;;20.65;15.43;;;18.30;99.90;;;;;;5049285;28;20431;-47
2021/08/20 08:14:25;;;;;;;18.98;13.80;;;18.30;99.90;;;;;;5049799;28;20029;-48
2021/08/20 08:16:51;;;;;;;27.77;17.40;;;18.30;99.90;;;;;;5049031;28;20025;-47
2021/08/20 08:19:16;;;;;;;21.67;16.65;;;18.30;99.90;;;;;;5069950;28;20020;-48
2021/08/20 08:21:44;;;;;;;21.55;15.18;;;18.20;99.90;;;;;;5087189;28;20032;-47
2021/08/20 08:24:10;;;;;;;20.50;14.00;;;18.20;99.90;;;;;;5091052;28;20023;-49
2021/08/20 08:26:35;;;;;;;20.20;12.98;;;18.20;99.90;;;;;;5066927;28;20029;-49
2021/08/20 08:29:01;;;;;;;17.42;12.77;;;18.30;99.90;;;;;;5060139;28;20481;-47
2021/08/20 08:31:26;;;;;;;24.13;14.35;;;18.40;99.90;;;;;;5057858;28;20039;-47
2021/08/20 08:33:52;;;;;;;18.88;13.27;;;18.30;99.90;;;;;;5057841;28;20028;-48
2021/08/20 08:36:19;;;;;;;16.45;12.43;;;18.40;99.90;;;;;;5055094;28;20020;-49
2021/08/20 08:38:45;;;;;;;18.35;12.25;;;18.50;99.90;;;;;;5062035;28;20095;-49
2021/08/20 08:41:11;;;;;;;23.05;13.82;;;18.60;99.90;;;;;;5054221;28;20033;-49
2021/08/20 08:43:36;;;;;;;20.00;14.65;;;18.70;99.90;;;;;;5053632;28;20036;-50
2021/08/20 08:46:04;;;;;;;19.80;14.00;;;18.70;99.90;;;;;;5050729;28;20040;-49
2021/08/20 08:48:31;;;;;;;17.40;13.43;;;18.80;99.90;;;;;;5052071;28;20132;-49
2021/08/20 08:50:59;;;;;;;17.63;12.10;;;18.80;99.90;;;;;;5061043;28;20457;-47
2021/08/20 08:53:25;;;;;;;20.40;14.15;;;19.00;99.90;;;;;;5057662;28;20025;-47
2021/08/20 08:55:51;;;;;;;18.80;12.02;;;19.30;99.90;;;;;;5052808;28;20029;-47
2021/08/20 08:58:17;;;;;;;14.98;11.48;;;19.60;99.90;;;;;;5054365;28;20031;-47
2021/08/20 09:00:42;;;;;;;13.70;11.73;;;19.70;99.90;;;;;;5057787;28;20237;-48
2021/08/20 09:03:22;;;;;;;14.75;9.85;;;20.20;99.90;;;;;;5057370;28;20025;-47
2021/08/20 09:05:48;;;;;;;13.90;10.80;;;20.70;99.90;;;;;;5054232;28;20375;-47
2021/08/20 09:08:19;;;;;;;16.23;9.88;;;21.00;99.90;;;;;;5058104;28;20078;-48
2021/08/20 09:10:54;;;;;;;;;;;21.50;99.90;;;;;;5058573;28;20048;-51
2021/08/20 09:13:21;;;;;;;11.68;8.68;;;21.90;99.90;;;;;;5053456;28;19974;-48
2021/08/20 09:16:04;;;;;;;12.57;8.07;;;22.10;99.90;;;;;;5048000;28;20074;-47
2021/08/20 09:18:29;;;;;;;11.90;8.43;;;22.50;99.90;;;;;;5059064;28;20024;-49
2021/08/20 09:20:55;;;;;;;11.20;9.57;;;22.50;99.90;;;;;;5079702;28;20032;-49
2021/08/20 09:23:23;;;;;;;13.20;8.32;;;22.20;99.90;;;;;;5088258;28;20027;-50
2021/08/20 09:25:50;;;;;;;15.05;8.82;;;21.90;99.90;;;;;;5055216;28;20029;-50
2021/08/20 09:28:34;;;;;;;11.68;8.48;;;22.70;99.90;;;;;;5053654;28;20029;-50
2021/08/20 09:31:09;;;;;;;14.75;9.57;;;23.40;98.50;;;;;;5063390;28;20429;-50
2021/08/20 09:33:42;;;;;;;11.23;6.40;;;24.90;97.50;;;;;;5064329;28;20602;-49
2021/08/20 09:36:12;;;;;;;8.45;7.30;;;25.40;95.10;;;;;;5047591;28;20432;-47
2021/08/20 09:38:55;;;;;;;7.00;6.28;;;25.20;94.00;;;;;;5054484;28;20041;-49
2021/08/20 09:41:29;;;;;;;10.00;7.65;;;24.90;94.20;;;;;;5066901;28;20032;-45
2021/08/20 09:43:56;;;;;;;9.15;6.30;;;24.20;93.30;;;;;;5066359;28;20344;-48
2021/08/20 09:46:23;;;;;;;8.75;6.68;;;24.10;94.10;;;;;;5056605;28;20032;-50
2021/08/20 09:49:09;;;;;;;15.68;8.90;;;24.60;93.50;;;;;;5059553;28;20019;-49
2021/08/20 09:51:37;;;;;;;13.43;9.85;;;24.80;93.00;;;;;;5062343;28;20033;-49
2021/08/20 09:54:04;;;;;;;13.70;10.88;;;25.60;91.80;;;;;;5057826;28;20016;-47
2021/08/20 09:56:30;;;;;;;8.50;7.57;;;26.30;89.40;;;;;;5061354;28;20120;-48
2021/08/20 09:58:59;;;;;;;17.23;9.77;;;26.80;91.30;;;;;;5067309;28;20096;-49
2021/08/20 10:01:27;;;;;;;14.80;9.75;;;27.60;83.70;;;;;;5067152;28;20029;-49
2021/08/20 10:03:58;;;;;;;22.88;17.65;;;27.80;82.90;;;;;;5067077;28;20012;-49
2021/08/20 10:06:29;;;;;;;9.85;7.65;;;28.20;81.60;;;;;;5070974;28;20517;-48
2021/08/20 10:08:56;;;;;;;13.77;9.20;;;29.00;78.00;;;;;;5071049;28;20048;-48
2021/08/20 10:11:25;;;;;;;12.18;8.55;;;28.90;76.20;;;;;;5071405;28;20086;-47
2021/08/20 10:13:51;;;;;;;9.70;8.53;;;28.10;75.10;;;;;;5067256;28;20477;-48
2021/08/20 10:16:17;;;;;;;11.30;8.25;;;27.80;75.70;;;;;;5065812;28;20028;-48
2021/08/20 10:18:43;;;;;;;10.00;8.20;;;28.00;75.90;;;;;;5062835;28;20017;-48
2021/08/20 10:21:09;;;;;;;11.95;7.32;;;28.40;77.40;;;;;;5065147;28;20028;-47
2021/08/20 10:23:35;;;;;;;10.25;7.82;;;28.60;72.50;;;;;;5058091;28;20503;-48
2021/08/20 10:26:02;;;;;;;10.55;8.93;;;27.50;77.20;;;;;;5059629;28;20033;-47
2021/08/20 10:28:28;;;;;;;9.32;7.97;;;26.30;78.60;;;;;;5060274;28;20021;-48
2021/08/20 10:30:54;;;;;;;14.23;11.30;;;25.40;80.00;;;;;;5061150;28;20383;-47
2021/08/20 10:33:33;;;;;;;12.75;9.45;;;24.50;83.00;;;;;;5057768;28;20103;-47
2021/08/20 10:36:00;;;;;;;16.55;10.10;;;23.70;88.90;;;;;;5060856;28;20024;-46
2021/08/20 10:38:41;;;;;;;14.02;9.98;;;23.00;90.20;;;;;;5059843;28;20074;-47
2021/08/20 10:41:18;;;;;;;16.10;10.65;;;22.60;90.80;;;;;;5057742;28;20029;-49
2021/08/20 10:43:57;;;;;;;12.68;10.15;;;22.30;91.40;;;;;;5062416;28;20184;-46
2021/08/20 10:46:49;;;;;;;14.02;10.23;;;22.00;92.30;;;;;;5061124;28;20029;-47
2021/08/20 10:49:20;;;;;;;13.13;9.70;;;21.60;92.40;;;;;;5064750;28;20518;-50
2021/08/20 10:51:59;;;;;;;13.43;10.57;;;21.40;93.50;;;;;;5089009;28;20024;-47
2021/08/20 10:54:31;;;;;;;13.48;10.25;;;21.00;94.40;;;;;;5091927;28;20016;-47
2021/08/20 10:57:04;;;;;;;19.52;13.32;;;20.80;95.80;;;;;;5069182;28;20146;-47
2021/08/20 10:59:45;;;;;;;21.85;12.55;;;20.80;96.50;;;;;;5071718;28;20021;-47
2021/08/20 11:02:23;;;;;;;14.77;11.50;;;20.90;96.80;;;;;;5060673;28;20078;-46
2021/08/20 11:04:59;;;;;;;13.07;9.85;;;21.00;96.90;;;;;;5049446;28;20036;-46
2021/08/20 11:07:42;;;;;;;15.60;12.10;;;21.00;97.10;;;;;;5050986;28;20055;-46
2021/08/20 11:10:08;;;;;;;14.27;9.95;;;20.70;96.60;;;;;;5051674;28;20056;-49
2021/08/20 11:12:43;;;;;;;14.88;10.60;;;20.50;97.00;;;;;;5050218;28;20025;-46
2021/08/20 11:15:17;;;;;;;13.27;9.60;;;20.40;97.60;;;;;;5068006;28;20367;-47
2021/08/20 11:17:53;;;;;;;9.75;8.43;;;20.40;98.90;;;;;;5067050;28;20020;-47
2021/08/20 11:20:28;;;;;;;16.15;11.85;;;20.50;99.00;;;;;;5083195;28;20101;-47
2021/08/20 11:23:06;;;;;;;23.40;15.32;;;20.60;98.70;;;;;;5091334;28;20094;-49
2021/08/20 11:25:45;;;;;;;11.50;8.35;;;21.40;97.30;;;;;;5090084;28;20155;-48
2021/08/20 11:28:22;;;;;;;10.02;7.47;;;23.50;96.20;;;;;;5090999;28;20107;-47
2021/08/20 11:31:04;;;;;;;9.35;7.38;;;25.20;91.70;;;;;;5089589;28;20706;-50
2021/08/20 11:33:33;;;;;;;9.98;5.88;;;26.60;84.50;;;;;;5091354;28;20156;-48
2021/08/20 11:36:01;;;;;;;9.02;6.97;;;27.20;78.10;;;;;;5089872;28;20027;-50
2021/08/20 11:38:42;;;;;;;9.00;7.85;;;27.60;77.90;;;;;;5088611;28;20016;-47
2021/08/20 11:41:19;;;;;;;7.97;6.20;;;28.20;74.30;;;;;;5088010;28;20085;-47
2021/08/20 11:43:50;;;;;;;10.18;6.53;;;27.90;73.90;;;;;;5089360;28;20082;-49
2021/08/20 11:46:16;;;;;;;8.80;6.47;;;27.00;74.60;;;;;;5088740;28;20027;-47
2021/08/20 11:48:44;;;;;;;6.95;5.53;;;26.10;75.20;;;;;;5084296;28;20410;-47
2021/08/20 11:51:11;;;;;;;6.97;6.10;;;25.30;78.70;;;;;;5073997;28;20357;-47
2021/08/20 11:53:37;;;;;;;9.90;6.68;;;24.80;80.80;;;;;;5088694;28;20055;-47
2021/08/20 11:56:08;;;;;;;9.27;6.97;;;24.60;82.30;;;;;;5088900;28;20028;-48
2021/08/20 11:58:34;;;;;;;10.95;6.90;;;24.70;84.30;;;;;;5089123;28;20535;-50
2021/08/20 12:01:00;;;;;;;9.18;6.22;;;25.20;83.20;;;;;;5088411;28;20028;-47
2021/08/20 12:03:26;;;;;;;6.80;5.15;;;25.40;80.50;;;;;;5086705;28;20072;-47
2021/08/20 12:06:21;;;;;;;7.88;5.22;;;25.40;79.40;;;;;;5081730;28;20123;-47
2021/08/20 12:08:47;;;;;;;7.20;4.50;;;25.30;79.10;;;;;;5052205;28;20498;-47
2021/08/20 12:11:13;;;;;;;10.10;5.07;;;25.00;77.50;;;;;;5057051;28;20119;-48
2021/08/20 12:13:48;;;;;;;6.80;5.25;;;24.80;76.50;;;;;;5059602;28;20505;-48
2021/08/20 12:16:39;;;;;;;7.38;5.65;;;24.60;78.80;;;;;;5069138;28;20094;-47
2021/08/20 12:19:32;;;;;;;6.15;5.18;;;24.40;80.60;;;;;;5078545;28;20013;-49
2021/08/20 12:22:10;;;;;;;5.57;4.53;;;24.10;81.40;;;;;;5065691;28;20029;-48
2021/08/20 12:24:51;;;;;;;6.70;4.55;;;23.80;81.50;;;;;;5068581;28;20048;-47
2021/08/20 12:27:27;;;;;;;6.47;4.78;;;24.00;84.80;;;;;;5067715;28;20104;-48
2021/08/20 12:29:59;;;;;;;5.85;4.10;;;24.30;81.60;;;;;;5068421;28;20151;-50
2021/08/20 12:32:33;;;;;;;6.85;4.35;;;24.50;81.70;;;;;;5068365;28;20139;-49